Terminal Aerodrome Forecast
Issued by NWS Jackson, MS

Home | Current Version | Previous Version | Text Only | Print | Product List | Glossary On
Versions: 1 2 3 4 5 6 7 8 9 10 11 12 13 14 15 16 17
989
FTUS44 KJAN 070540
TAFMEI
TAF
KMEI 070540Z 0706/0806 01004KT P6SM OVC007
     FM071100 03003KT 4SM BR OVC003
     FM071500 02003KT P6SM OVC007
     FM072000 34003KT P6SM OVC015
     FM072100 34004KT P6SM OVC025
     FM080400 01003KT P6SM OVC015=

USA.gov is the U.S. government's official web portal to all federal, state and local government web resources and services.